KALX/ALX METAR and TAF weather

Enter ICAO airport designator
Station Type Date Time Source
KALX METAR 2020/08/15 10:55 UTC NOAA

KALX 151055Z AUTO 00000KT 10SM OVC007 23/23 A2990 RMK AO2 T02300225


Station Type Date Time Source
KALX Decoded METAR 2020/08/15 10:55 UTC NOAA

Alexander City, Thomas C Russell Field Airport, AL, United States (KALX) 32-54-53N 085-57-46W
Aug 15, 2020 - 06:55 AM EDT / 2020.08.15 1055 UTC
Wind: Calm:0
Visibility: 10 mile(s):0
Sky conditions: overcast
Temperature: 73.4 F (23.0 C)
Dew Point: 72.5 F (22.5 C)
Relative Humidity: 97%
Pressure (altimeter): 29.9 in. Hg (1012 hPa)
ob: KALX 151055Z AUTO 00000KT 10SM OVC007 23/23 A2990 RMK AO2 T02300225
cycle: 11

Station Type Date Time Source
KALX TAF UTC NOAA

Error!

Example: see airport list